createdAt,value
2022-11-18T00:00:45.927Z,16.20
2022-11-18T00:10:48.161Z,13.10
2022-11-18T00:20:50.361Z,15.68
2022-11-18T00:30:52.503Z,17.17
2022-11-18T00:41:14.978Z,17.00
2022-11-18T00:51:18.785Z,14.77
2022-11-18T01:01:21.119Z,15.10
2022-11-18T01:11:42.366Z,14.00
2022-11-18T01:21:44.526Z,17.80
2022-11-18T01:32:09.277Z,18.98
2022-11-18T01:42:17.216Z,13.75
2022-11-18T01:52:20.791Z,15.60
2022-11-18T02:02:24.127Z,13.73
2022-11-18T02:12:26.351Z,20.30
2022-11-18T02:22:58.051Z,17.10
2022-11-18T02:33:15.940Z,14.43
2022-11-18T02:43:33.247Z,14.20
2022-11-18T02:53:38.387Z,14.25
2022-11-18T03:03:40.551Z,19.45
2022-11-18T03:13:59.823Z,18.90
2022-11-18T03:24:11.571Z,17.48
2022-11-18T03:34:20.897Z,16.90
2022-11-18T03:44:31.247Z,14.50
2022-11-18T03:54:36.323Z,18.05
2022-11-18T04:04:39.371Z,19.63
2022-11-18T04:14:44.688Z,19.70
2022-11-18T04:24:47.020Z,18.20
2022-11-18T04:34:49.167Z,16.90
2022-11-18T04:44:51.474Z,21.90
2022-11-18T04:54:53.840Z,17.90
2022-11-18T05:04:56.056Z,32.65
2022-11-18T05:14:58.473Z,22.48
2022-11-18T05:25:00.665Z,24.55
2022-11-18T05:35:02.927Z,26.00
2022-11-18T05:45:05.626Z,26.40
2022-11-18T05:55:09.148Z,37.75
2022-11-18T06:05:12.437Z,19.00
2022-11-18T06:15:31.011Z,18.42
2022-11-18T06:25:33.917Z,18.77
2022-11-18T06:35:36.353Z,16.33
2022-11-18T06:45:38.555Z,13.23
2022-11-18T06:55:40.798Z,22.15
2022-11-18T07:05:43.034Z,23.65
2022-11-18T07:15:45.203Z,14.70
2022-11-18T07:25:47.383Z,13.10
2022-11-18T07:35:49.558Z,13.73
2022-11-18T07:45:51.839Z,13.95
2022-11-18T07:55:54.724Z,10.70
2022-11-18T08:06:00.636Z,11.65
2022-11-18T08:16:03.301Z,10.95
2022-11-18T08:26:08.710Z,11.60
2022-11-18T08:36:21.114Z,20.35
2022-11-18T08:46:23.355Z,13.25
2022-11-18T08:56:26.227Z,25.65
2022-11-18T09:06:28.616Z,17.55
2022-11-18T09:16:32.930Z,26.13
2022-11-18T09:26:35.685Z,10.35
2022-11-18T09:36:38.180Z,12.27
2022-11-18T09:47:05.105Z,13.73
2022-11-18T09:57:40.587Z,20.05
2022-11-18T10:08:03.139Z,20.67
2022-11-18T10:18:58.325Z,16.88
2022-11-18T10:28:53.689Z,32.47
2022-11-18T10:39:15.754Z,25.52
2022-11-18T10:49:18.011Z,48.75
2022-11-18T10:59:32.920Z,32.72
2022-11-18T11:09:36.655Z,42.45
2022-11-18T11:19:52.536Z,25.85
2022-11-18T11:30:09.199Z,63.67
2022-11-18T11:40:30.985Z,80.13
2022-11-18T11:51:03.049Z,38.67
2022-11-18T12:01:30.956Z,55.78
2022-11-18T12:11:43.246Z,59.00
2022-11-18T12:21:48.268Z,43.67
2022-11-18T12:31:50.745Z,32.13
2022-11-18T12:42:14.628Z,31.88
2022-11-18T12:52:31.900Z,37.33
2022-11-18T13:02:34.679Z,37.93
2022-11-18T13:12:37.557Z,48.67
2022-11-18T13:23:08.711Z,54.42
2022-11-18T13:33:11.942Z,48.20
2022-11-18T13:43:26.259Z,39.72
2022-11-18T13:53:37.253Z,95.53
2022-11-18T14:03:50.956Z,90.97
2022-11-18T14:13:54.807Z,83.65
2022-11-18T14:23:58.177Z,78.22
2022-11-18T14:34:06.800Z,44.00
2022-11-18T14:44:09.329Z,62.95
2022-11-18T14:54:20.843Z,53.85
2022-11-18T15:04:27.664Z,49.97
2022-11-18T15:14:29.870Z,48.47
2022-11-18T15:24:32.100Z,40.72
2022-11-18T15:34:34.328Z,38.80
2022-11-18T15:44:36.549Z,130.02
2022-11-18T15:54:39.281Z,59.67
2022-11-18T16:04:41.490Z,49.88
2022-11-18T16:15:03.654Z,44.20
2022-11-18T16:25:06.258Z,47.30
2022-11-18T16:35:08.592Z,41.88
2022-11-18T16:45:10.971Z,37.92
2022-11-18T16:55:13.258Z,33.40
2022-11-18T17:05:15.468Z,33.58
2022-11-18T17:15:17.907Z,37.42
2022-11-18T17:25:20.206Z,30.15
2022-11-18T17:35:22.411Z,36.60
2022-11-18T17:45:24.608Z,72.25
2022-11-18T17:55:26.773Z,128.05
2022-11-18T18:05:29.177Z,32.45
2022-11-18T18:15:31.738Z,27.55
2022-11-18T18:25:34.373Z,9.50
2022-11-18T18:35:41.565Z,22.23
2022-11-18T18:46:02.518Z,14.43
2022-11-18T18:56:05.196Z,7.88
2022-11-18T19:17:04.822Z,7.00
2022-11-18T19:27:11.642Z,23.20
2022-11-18T19:37:13.843Z,10.00
2022-11-18T19:47:16.351Z,7.10
2022-11-18T19:57:18.619Z,6.25
2022-11-18T20:07:21.119Z,22.45
2022-11-18T20:17:24.426Z,12.40
2022-11-18T20:27:26.795Z,14.27
2022-11-18T20:37:29.599Z,9.00
2022-11-18T20:47:31.830Z,8.88
2022-11-18T20:57:34.072Z,9.98
2022-11-18T21:07:36.296Z,9.63
2022-11-18T21:17:39.148Z,12.88
2022-11-18T21:27:42.634Z,10.65
2022-11-18T21:40:12.455Z,9.77
2022-11-18T21:50:14.852Z,10.25
2022-11-18T22:10:10.478Z,10.73
2022-11-18T22:20:12.863Z,10.00
2022-11-18T22:30:15.392Z,10.52
2022-11-18T22:40:17.838Z,11.52
2022-11-18T22:50:20.014Z,11.23
2022-11-18T23:05:19.226Z,11.20
2022-11-18T23:15:21.469Z,11.48
2022-11-18T23:25:23.664Z,12.77
2022-11-18T23:35:25.940Z,12.95
2022-11-18T23:45:29.335Z,14.10
2022-11-18T23:55:31.514Z,13.07
